createdAt,value
2022-09-07T00:01:41.790Z,61.51
2022-09-07T00:04:15.342Z,61.38
2022-09-07T00:06:48.575Z,61.19
2022-09-07T00:09:21.893Z,61.28
2022-09-07T00:11:55.710Z,61.42
2022-09-07T00:14:29.892Z,61.52
2022-09-07T00:17:03.253Z,61.57
2022-09-07T00:22:27.953Z,61.66
2022-09-07T00:25:02.005Z,61.79
2022-09-07T00:27:35.818Z,61.98
2022-09-07T00:30:10.665Z,62.15
2022-09-07T00:32:43.853Z,62.27
2022-09-07T00:35:17.216Z,62.62
2022-09-07T00:37:51.627Z,62.91
2022-09-07T00:40:45.555Z,62.96
2022-09-07T00:43:37.481Z,62.92
2022-09-07T00:46:16.800Z,62.81
2022-09-07T00:49:12.737Z,62.90
2022-09-07T00:51:59.385Z,62.91
2022-09-07T00:54:42.279Z,62.94
2022-09-07T00:57:17.041Z,62.90
2022-09-07T00:59:52.776Z,62.79
2022-09-07T01:02:26.979Z,62.90
2022-09-07T01:05:09.365Z,63.02
2022-09-07T01:07:42.650Z,63.01
2022-09-07T01:10:15.912Z,63.04
2022-09-07T01:12:48.933Z,62.98
2022-09-07T01:15:23.243Z,63.00
2022-09-07T01:18:06.041Z,63.09
2022-09-07T01:21:10.177Z,63.03
2022-09-07T01:24:08.677Z,63.09
2022-09-07T01:27:19.439Z,63.15
2022-09-07T01:30:11.279Z,63.03
2022-09-07T01:33:19.887Z,63.06
2022-09-07T01:36:24.834Z,63.09
2022-09-07T01:39:02.131Z,63.08
2022-09-07T01:42:11.574Z,62.92
2022-09-07T01:44:57.610Z,62.93
2022-09-07T01:47:47.465Z,62.83
2022-09-07T01:50:29.860Z,62.75
2022-09-07T01:53:07.517Z,62.57
2022-09-07T01:55:53.742Z,62.44
2022-09-07T01:58:30.663Z,62.34
2022-09-07T02:01:09.549Z,62.18
2022-09-07T02:03:56.231Z,62.22
2022-09-07T02:06:37.000Z,62.13
2022-09-07T02:09:38.996Z,62.02
2022-09-07T02:12:19.767Z,61.84
2022-09-07T02:15:01.010Z,61.86
2022-09-07T02:17:42.838Z,61.85
2022-09-07T02:20:23.416Z,61.72
2022-09-07T02:23:00.721Z,61.92
2022-09-07T02:25:41.372Z,61.59
2022-09-07T02:28:21.166Z,61.43
2022-09-07T02:30:54.752Z,61.37
2022-09-07T02:33:28.277Z,61.22
2022-09-07T02:36:02.361Z,61.21
2022-09-07T02:38:35.931Z,61.27
2022-09-07T02:41:29.904Z,61.25
2022-09-07T02:44:03.543Z,61.21
2022-09-07T02:46:59.869Z,61.28
2022-09-07T02:50:15.135Z,61.33
2022-09-07T02:53:16.574Z,61.44
2022-09-07T02:56:15.061Z,61.54
2022-09-07T02:59:14.032Z,61.58
2022-09-07T03:02:13.025Z,61.53
2022-09-07T03:05:13.802Z,61.50
2022-09-07T03:07:54.558Z,61.51
2022-09-07T03:10:28.542Z,61.56
2022-09-07T03:13:01.574Z,61.72
2022-09-07T03:15:35.652Z,61.62
2022-09-07T03:18:29.849Z,61.46
2022-09-07T03:21:03.674Z,61.55
2022-09-07T03:23:37.969Z,61.63
2022-09-07T03:26:15.577Z,61.57
2022-09-07T03:28:49.473Z,61.59
2022-09-07T03:31:22.793Z,61.54
2022-09-07T03:33:56.699Z,61.60
2022-09-07T03:36:30.942Z,61.55
2022-09-07T03:39:04.429Z,61.41
2022-09-07T03:41:39.000Z,61.44
2022-09-07T03:44:12.169Z,61.32
2022-09-07T03:46:45.214Z,61.36
2022-09-07T03:49:18.497Z,61.10
2022-09-07T03:51:52.574Z,60.83
2022-09-07T03:54:25.823Z,60.49
2022-09-07T03:56:59.321Z,60.22
2022-09-07T03:59:32.335Z,59.81
2022-09-07T04:02:26.846Z,59.51
2022-09-07T04:05:00.507Z,59.34
2022-09-07T04:07:33.754Z,58.98
2022-09-07T04:10:09.061Z,58.78
2022-09-07T04:12:42.070Z,58.39
2022-09-07T04:15:15.463Z,58.11
2022-09-07T04:17:48.629Z,57.73
2022-09-07T04:20:22.502Z,57.19
2022-09-07T04:22:56.875Z,56.99
2022-09-07T04:25:29.922Z,56.76
2022-09-07T04:28:04.195Z,56.35
2022-09-07T04:30:38.504Z,55.91
2022-09-07T04:33:12.105Z,55.53
2022-09-07T04:35:45.150Z,55.21
2022-09-07T04:38:19.584Z,54.85
2022-09-07T04:40:54.110Z,54.32
2022-09-07T04:43:27.483Z,54.20
2022-09-07T04:46:06.720Z,53.89
2022-09-07T04:48:39.735Z,53.51
2022-09-07T04:51:12.955Z,52.67
2022-09-07T04:53:47.341Z,52.37
2022-09-07T04:56:21.018Z,51.91
2022-09-07T04:58:54.240Z,51.42
2022-09-07T05:01:27.452Z,50.89
2022-09-07T05:04:02.663Z,50.27
2022-09-07T05:06:36.042Z,49.79
2022-09-07T05:09:09.049Z,49.04
2022-09-07T05:11:43.252Z,48.77
2022-09-07T05:14:16.255Z,48.81
2022-09-07T05:16:50.616Z,48.60
2022-09-07T05:19:35.267Z,48.34
2022-09-07T05:22:09.511Z,47.79
2022-09-07T05:24:43.815Z,47.29
2022-09-07T05:27:17.150Z,46.55
2022-09-07T05:30:06.272Z,47.31
2022-09-07T05:32:24.083Z,47.04
2022-09-07T05:34:57.421Z,46.64
2022-09-07T05:37:30.918Z,45.67
2022-09-07T05:40:04.088Z,45.27
2022-09-07T05:42:40.625Z,43.28
2022-09-07T05:45:14.697Z,41.18
2022-09-07T05:47:51.131Z,40.83
2022-09-07T05:50:24.734Z,40.42
2022-09-07T05:52:59.596Z,40.13
2022-09-07T05:55:36.323Z,40.02
2022-09-07T05:58:09.264Z,39.48
2022-09-07T06:00:42.136Z,39.17
2022-09-07T06:03:15.143Z,39.34
2022-09-07T06:05:48.206Z,38.76
2022-09-07T06:08:21.532Z,38.10
2022-09-07T06:10:54.414Z,38.16
2022-09-07T06:13:27.403Z,37.83
2022-09-07T06:16:09.596Z,37.25
2022-09-07T06:18:46.028Z,36.88
2022-09-07T06:21:23.710Z,35.75
2022-09-07T06:23:58.024Z,35.65
2022-09-07T06:26:32.442Z,35.71
2022-09-07T06:29:05.756Z,35.65
2022-09-07T06:34:13.432Z,35.03
2022-09-07T06:36:46.547Z,34.54
2022-09-07T06:39:19.923Z,34.71
2022-09-07T06:44:29.996Z,33.93
2022-09-07T06:47:04.780Z,33.45
2022-09-07T06:49:39.322Z,33.07
2022-09-07T06:52:12.335Z,31.91
2022-09-07T06:55:02.379Z,32.05
2022-09-07T06:57:21.723Z,31.79
2022-09-07T07:00:14.956Z,31.35
2022-09-07T07:02:48.202Z,30.91
2022-09-07T07:05:21.344Z,30.96
2022-09-07T07:07:56.547Z,31.13
2022-09-07T07:10:29.979Z,32.13
2022-09-07T07:13:04.811Z,30.91
2022-09-07T07:15:39.406Z,29.56
2022-09-07T07:18:20.948Z,29.52
2022-09-07T07:20:48.194Z,29.39
2022-09-07T07:23:21.679Z,29.91
2022-09-07T07:25:56.197Z,30.67
2022-09-07T07:31:09.459Z,28.98
2022-09-07T07:33:41.042Z,28.82
2022-09-07T07:36:17.404Z,28.85
2022-09-07T07:44:07.660Z,27.89
2022-09-07T07:46:40.766Z,27.73
2022-09-07T07:49:14.621Z,27.21
2022-09-07T07:54:23.136Z,27.44
2022-09-07T07:56:56.028Z,27.30
2022-09-07T07:59:29.385Z,26.84
2022-09-07T08:02:05.870Z,26.73
2022-09-07T08:04:39.583Z,27.70
2022-09-07T08:07:13.264Z,27.30
2022-09-07T08:09:49.050Z,27.03
2022-09-07T08:12:25.559Z,26.12
2022-09-07T08:14:59.089Z,25.31
2022-09-07T08:17:32.017Z,27.25
2022-09-07T08:20:05.162Z,25.60
2022-09-07T08:22:38.539Z,26.03
2022-09-07T08:25:12.070Z,27.01
2022-09-07T08:27:45.382Z,26.45
2022-09-07T08:30:19.211Z,26.58
2022-09-07T08:32:53.843Z,28.36
2022-09-07T08:35:42.919Z,26.95
2022-09-07T08:38:20.516Z,27.57
2022-09-07T08:40:51.812Z,26.53
2022-09-07T08:43:54.067Z,26.71
2022-09-07T08:46:56.687Z,26.49
2022-09-07T08:49:43.410Z,28.09
2022-09-07T08:52:40.849Z,27.69
2022-09-07T08:55:24.444Z,25.97
2022-09-07T08:58:47.742Z,26.32
2022-09-07T09:04:15.209Z,28.61
2022-09-07T09:06:40.465Z,24.96
2022-09-07T09:09:20.882Z,24.96
2022-09-07T09:12:18.547Z,25.70
2022-09-07T09:15:11.251Z,24.64
2022-09-07T09:18:13.886Z,25.20
2022-09-07T09:20:57.382Z,26.07
2022-09-07T09:23:42.931Z,26.07
2022-09-07T09:26:18.219Z,25.59
2022-09-07T09:28:52.281Z,24.15
2022-09-07T09:31:32.138Z,23.98
2022-09-07T09:34:17.953Z,24.19
2022-09-07T09:36:53.985Z,24.71
2022-09-07T09:39:35.991Z,24.19
2022-09-07T09:42:27.733Z,23.56
2022-09-07T09:45:15.985Z,23.09
2022-09-07T09:47:53.295Z,24.23
2022-09-07T09:53:05.736Z,23.11
2022-09-07T09:55:40.450Z,24.71
2022-09-07T10:01:35.464Z,22.58
2022-09-07T10:04:30.079Z,21.71
2022-09-07T10:07:18.221Z,22.39
2022-09-07T10:09:53.885Z,23.90
2022-09-07T10:12:38.250Z,23.34
2022-09-07T10:15:39.058Z,22.97
2022-09-07T10:18:13.085Z,22.18
2022-09-07T10:20:46.495Z,22.07
2022-09-07T10:23:26.080Z,23.00
2022-09-07T10:25:59.154Z,22.71
2022-09-07T10:31:23.637Z,22.93
2022-09-07T10:34:35.043Z,22.71
2022-09-07T10:37:12.501Z,21.60
2022-09-07T10:40:05.291Z,21.46
2022-09-07T10:43:20.699Z,22.26
2022-09-07T10:45:27.891Z,22.06
2022-09-07T10:48:22.070Z,23.09
2022-09-07T10:51:13.811Z,22.60
2022-09-07T10:57:03.650Z,23.46
2022-09-07T11:00:15.135Z,24.80
2022-09-07T11:03:29.295Z,25.17
2022-09-07T11:06:11.407Z,24.07
2022-09-07T11:09:16.513Z,24.24
2022-09-07T11:12:18.429Z,24.96
2022-09-07T11:15:21.393Z,24.75
2022-09-07T11:18:10.112Z,22.59
2022-09-07T11:20:54.628Z,22.72
2022-09-07T11:23:52.592Z,21.44
2022-09-07T11:26:33.343Z,21.25
2022-09-07T11:29:32.319Z,21.18
2022-09-07T11:32:14.643Z,21.38
2022-09-07T11:35:10.579Z,21.85
2022-09-07T11:37:59.784Z,21.76
2022-09-07T11:40:39.812Z,22.57
2022-09-07T11:43:25.764Z,21.93
2022-09-07T11:46:26.946Z,21.81
2022-09-07T11:49:00.200Z,22.01
2022-09-07T11:51:55.202Z,22.09
2022-09-07T11:54:48.612Z,22.18
2022-09-07T11:57:55.444Z,21.70
2022-09-07T12:00:33.016Z,21.42
2022-09-07T12:03:31.535Z,21.87
2022-09-07T12:06:50.194Z,21.93
2022-09-07T12:10:21.577Z,22.67
2022-09-07T12:13:45.768Z,22.58
2022-09-07T12:16:48.359Z,22.81
2022-09-07T12:19:25.122Z,21.85
2022-09-07T12:22:22.160Z,21.60
2022-09-07T12:24:56.090Z,22.45
2022-09-07T12:27:35.624Z,22.19
2022-09-07T12:30:19.274Z,22.36
2022-09-07T12:33:01.167Z,22.41
2022-09-07T12:35:41.667Z,23.36
2022-09-07T12:38:36.944Z,24.52
2022-09-07T12:41:25.130Z,23.90
2022-09-07T12:44:10.695Z,24.16
2022-09-07T12:46:47.446Z,26.09
2022-09-07T12:49:43.771Z,26.29
2022-09-07T12:52:39.837Z,27.06
2022-09-07T12:55:32.965Z,27.13
2022-09-07T12:58:30.326Z,27.03
2022-09-07T13:01:55.955Z,27.11
2022-09-07T13:04:52.843Z,26.55
2022-09-07T13:08:08.275Z,26.74
2022-09-07T13:10:58.083Z,26.84
2022-09-07T13:16:14.429Z,26.65
2022-09-07T13:18:47.816Z,27.87
2022-09-07T13:21:34.211Z,28.05
2022-09-07T13:27:06.404Z,27.46
2022-09-07T13:29:44.001Z,27.60
2022-09-07T13:35:13.702Z,27.32
2022-09-07T13:38:09.036Z,28.49
2022-09-07T13:40:42.769Z,27.82
2022-09-07T13:43:22.792Z,28.01
2022-09-07T13:46:18.057Z,28.21
2022-09-07T13:48:52.504Z,28.17
2022-09-07T13:51:42.110Z,28.81
2022-09-07T13:54:50.865Z,28.43
2022-09-07T13:57:34.756Z,28.88
2022-09-07T14:00:10.376Z,28.82
2022-09-07T14:02:43.481Z,28.08
2022-09-07T14:05:20.475Z,27.48
2022-09-07T14:07:54.194Z,27.50
2022-09-07T14:10:29.877Z,27.34
2022-09-07T14:13:14.296Z,27.07
2022-09-07T14:15:49.663Z,27.80
2022-09-07T14:18:31.851Z,27.70
2022-09-07T14:21:06.901Z,27.45
2022-09-07T14:23:40.158Z,27.22
2022-09-07T14:26:22.238Z,27.12
2022-09-07T14:28:58.412Z,27.19
2022-09-07T14:31:32.626Z,27.90
2022-09-07T14:34:06.722Z,26.59
2022-09-07T14:36:45.777Z,26.86
2022-09-07T14:39:18.184Z,27.29
2022-09-07T14:41:51.889Z,27.55
2022-09-07T14:44:39.025Z,27.82
2022-09-07T14:47:33.039Z,27.83
2022-09-07T14:50:07.242Z,27.40
2022-09-07T14:53:33.892Z,27.23
2022-09-07T14:55:44.861Z,27.46
2022-09-07T14:58:23.821Z,27.16
2022-09-07T15:03:58.742Z,27.65
2022-09-07T15:07:02.997Z,27.71
2022-09-07T15:09:37.143Z,27.75
2022-09-07T15:12:36.451Z,28.27
2022-09-07T15:15:03.556Z,28.09
2022-09-07T15:17:44.299Z,27.94
2022-09-07T15:20:32.602Z,28.14
2022-09-07T15:23:21.164Z,28.43
2022-09-07T15:25:54.761Z,28.55
2022-09-07T15:33:42.203Z,28.73
2022-09-07T15:36:16.985Z,28.52
2022-09-07T15:39:05.043Z,28.55
2022-09-07T15:41:24.725Z,29.13
2022-09-07T15:43:58.394Z,29.49
2022-09-07T15:46:32.429Z,28.67
2022-09-07T15:49:05.867Z,28.73
2022-09-07T15:54:17.006Z,29.36
2022-09-07T15:59:25.696Z,29.46
2022-09-07T16:01:59.041Z,29.95
2022-09-07T16:04:32.106Z,30.04
2022-09-07T16:07:05.331Z,30.24
2022-09-07T16:09:39.150Z,30.31
2022-09-07T16:14:47.903Z,30.31
2022-09-07T16:17:26.929Z,30.45
2022-09-07T16:19:57.621Z,30.25
2022-09-07T16:25:07.327Z,30.56
2022-09-07T16:27:41.769Z,30.45
2022-09-07T16:30:15.995Z,30.97
2022-09-07T16:32:52.313Z,30.94
2022-09-07T16:35:25.485Z,31.00
2022-09-07T16:40:33.195Z,31.41
2022-09-07T16:43:06.971Z,31.85
2022-09-07T16:48:13.729Z,31.84
2022-09-07T16:51:00.624Z,31.93
2022-09-07T16:53:30.438Z,31.86
2022-09-07T16:56:07.315Z,32.47
2022-09-07T16:59:03.376Z,32.51
2022-09-07T17:01:37.790Z,32.71
2022-09-07T17:04:11.617Z,32.84
2022-09-07T17:06:45.031Z,32.80
2022-09-07T17:09:18.264Z,32.79
2022-09-07T17:11:52.517Z,32.80
2022-09-07T17:14:25.376Z,32.71
2022-09-07T17:16:59.133Z,32.89
2022-09-07T17:19:33.233Z,32.91
2022-09-07T17:22:09.168Z,33.09
2022-09-07T17:24:42.337Z,32.77
2022-09-07T17:27:15.150Z,32.94
2022-09-07T17:29:48.119Z,33.12
2022-09-07T17:32:24.283Z,33.15
2022-09-07T17:35:00.337Z,33.28
2022-09-07T17:37:34.737Z,33.58
2022-09-07T17:40:09.868Z,34.12
2022-09-07T17:45:16.748Z,33.98
2022-09-07T17:47:50.759Z,34.02
2022-09-07T17:50:23.964Z,34.15
2022-09-07T17:52:56.893Z,34.71
2022-09-07T17:55:31.817Z,34.99
2022-09-07T17:58:05.695Z,35.52
2022-09-07T18:00:38.828Z,35.84
2022-09-07T18:03:13.099Z,35.71
2022-09-07T18:05:46.074Z,35.74
2022-09-07T18:08:18.923Z,35.77
2022-09-07T18:13:35.637Z,36.48
2022-09-07T18:16:01.110Z,36.76
2022-09-07T18:18:34.189Z,36.82
2022-09-07T18:21:16.235Z,36.86
2022-09-07T18:23:51.438Z,36.74
2022-09-07T18:26:24.908Z,37.20
2022-09-07T18:29:10.502Z,37.35
2022-09-07T18:31:33.249Z,37.63
2022-09-07T18:34:09.001Z,38.28
2022-09-07T18:36:43.985Z,38.78
2022-09-07T18:39:17.312Z,39.39
2022-09-07T18:41:50.371Z,39.90
2022-09-07T18:47:00.852Z,39.97
2022-09-07T18:49:35.911Z,39.61
2022-09-07T18:54:43.799Z,39.72
2022-09-07T18:57:16.872Z,39.94
2022-09-07T18:59:53.552Z,40.03
2022-09-07T19:02:27.362Z,40.54
2022-09-07T19:07:36.906Z,40.70
2022-09-07T19:10:12.712Z,41.03
2022-09-07T19:12:46.886Z,41.70
2022-09-07T19:15:20.790Z,42.26
2022-09-07T19:17:54.595Z,42.75
2022-09-07T19:20:29.598Z,43.14
2022-09-07T19:23:03.555Z,43.22
2022-09-07T19:25:40.051Z,43.51
2022-09-07T19:28:14.600Z,43.37
2022-09-07T19:30:48.619Z,42.79
2022-09-07T19:33:22.693Z,42.68
2022-09-07T19:35:55.554Z,43.04
2022-09-07T19:38:29.763Z,43.25
2022-09-07T19:41:03.383Z,43.36
2022-09-07T19:43:37.083Z,43.95
2022-09-07T19:46:10.956Z,44.41
2022-09-07T19:48:44.310Z,44.31
2022-09-07T19:51:19.653Z,43.94
2022-09-07T19:53:52.971Z,44.60
2022-09-07T19:56:27.324Z,44.95
2022-09-07T19:59:00.385Z,45.05
2022-09-07T20:01:35.316Z,45.28
2022-09-07T20:04:10.299Z,45.78
2022-09-07T20:06:43.181Z,46.13
2022-09-07T20:09:17.253Z,46.57
2022-09-07T20:11:51.261Z,46.75
2022-09-07T20:14:26.731Z,46.94
2022-09-07T20:17:01.537Z,47.05
2022-09-07T20:19:35.064Z,47.15
2022-09-07T20:22:08.691Z,46.97
2022-09-07T20:24:43.576Z,46.86
2022-09-07T20:27:15.764Z,47.23
2022-09-07T20:29:51.252Z,47.05
2022-09-07T20:32:24.782Z,47.24
2022-09-07T20:34:58.567Z,47.34
2022-09-07T20:37:31.679Z,47.10
2022-09-07T20:40:06.639Z,47.13
2022-09-07T20:42:41.073Z,47.19
2022-09-07T20:45:15.288Z,47.44
2022-09-07T20:47:49.349Z,47.86
2022-09-07T20:50:22.623Z,47.89
2022-09-07T20:52:56.315Z,48.59
2022-09-07T20:55:30.734Z,48.82
2022-09-07T20:58:04.540Z,48.87
2022-09-07T21:00:37.959Z,49.20
2022-09-07T21:03:12.422Z,49.23
2022-09-07T21:05:45.238Z,48.84
2022-09-07T21:08:18.300Z,48.84
2022-09-07T21:10:51.795Z,48.83
2022-09-07T21:13:24.701Z,48.83
2022-09-07T21:15:57.701Z,48.87
2022-09-07T21:18:30.477Z,48.92
2022-09-07T21:21:19.175Z,49.07
2022-09-07T21:23:39.344Z,48.81
2022-09-07T21:26:13.011Z,48.25
2022-09-07T21:28:46.944Z,47.72
2022-09-07T21:31:19.914Z,48.05
2022-09-07T21:33:59.902Z,47.80
2022-09-07T21:36:35.019Z,47.73
2022-09-07T21:39:12.591Z,47.48
2022-09-07T21:41:45.225Z,46.54
2022-09-07T21:44:18.714Z,46.98
2022-09-07T21:46:53.229Z,47.45
2022-09-07T21:49:27.774Z,47.68
2022-09-07T21:52:00.713Z,47.82
2022-09-07T21:54:33.721Z,48.11
2022-09-07T21:57:08.140Z,48.00
2022-09-07T21:59:41.728Z,48.01
2022-09-07T22:02:15.345Z,47.76
2022-09-07T22:04:49.016Z,47.62
2022-09-07T22:07:22.155Z,47.30
2022-09-07T22:09:56.782Z,47.52
2022-09-07T22:12:30.148Z,47.92
2022-09-07T22:15:03.399Z,48.22
2022-09-07T22:17:37.029Z,48.28
2022-09-07T22:20:12.212Z,48.37
2022-09-07T22:22:47.625Z,48.43
2022-09-07T22:25:20.620Z,48.86
2022-09-07T22:27:54.403Z,49.53
2022-09-07T22:30:28.667Z,49.84
2022-09-07T22:33:01.498Z,49.51
2022-09-07T22:35:36.382Z,49.77
2022-09-07T22:38:09.208Z,49.73
2022-09-07T22:40:42.070Z,49.82
2022-09-07T22:43:14.887Z,49.79
2022-09-07T22:45:47.846Z,49.71
2022-09-07T22:48:20.972Z,49.52
2022-09-07T22:50:59.787Z,49.89
2022-09-07T22:53:37.350Z,49.14
2022-09-07T22:56:18.816Z,49.79
2022-09-07T22:58:54.235Z,49.09
2022-09-07T23:01:28.305Z,49.14
2022-09-07T23:04:02.782Z,49.63
2022-09-07T23:06:39.369Z,50.04
2022-09-07T23:09:15.694Z,50.36
2022-09-07T23:11:49.961Z,50.24
2022-09-07T23:14:23.996Z,50.56
2022-09-07T23:16:58.238Z,50.89
2022-09-07T23:19:31.224Z,51.15
2022-09-07T23:22:04.824Z,51.31
2022-09-07T23:24:39.956Z,51.29
2022-09-07T23:27:12.791Z,51.31
2022-09-07T23:29:47.181Z,51.19
2022-09-07T23:32:20.181Z,51.09
2022-09-07T23:34:54.058Z,50.53
2022-09-07T23:37:27.017Z,50.23
2022-09-07T23:39:59.930Z,50.09
2022-09-07T23:42:33.130Z,50.11
2022-09-07T23:45:08.469Z,50.18
2022-09-07T23:47:42.340Z,50.22
2022-09-07T23:50:15.122Z,50.14
2022-09-07T23:52:49.213Z,50.36
2022-09-07T23:55:22.525Z,50.80
2022-09-07T23:57:57.365Z,51.17
